sensor_id;sensor_type;location;lat;lon;timestamp;P1;durP1;ratioP1;P2;durP2;ratioP2
72755;SDS011;60881;55.002;73.232;2022-08-19T00:01:47;2.80;;;0.30;;
72755;SDS011;60881;55.002;73.232;2022-08-19T00:04:16;2.38;;;0.30;;
72755;SDS011;60881;55.002;73.232;2022-08-19T00:06:45;2.38;;;0.45;;
72755;SDS011;60881;55.002;73.232;2022-08-19T00:09:13;2.83;;;0.55;;
72755;SDS011;60881;55.002;73.232;2022-08-19T00:11:42;0.77;;;0.38;;
72755;SDS011;60881;55.002;73.232;2022-08-19T00:14:11;0.90;;;0.40;;
72755;SDS011;60881;55.002;73.232;2022-08-19T00:16:40;0.43;;;0.30;;
72755;SDS011;60881;55.002;73.232;2022-08-19T00:19:09;0.45;;;0.28;;
72755;SDS011;60881;55.002;73.232;2022-08-19T00:21:45;0.63;;;0.25;;
72755;SDS011;60881;55.002;73.232;2022-08-19T00:24:12;1.20;;;0.32;;
72755;SDS011;60881;55.002;73.232;2022-08-19T00:26:50;3.58;;;0.40;;
72755;SDS011;60881;55.002;73.232;2022-08-19T00:29:20;2.17;;;0.20;;
72755;SDS011;60881;55.002;73.232;2022-08-19T00:31:48;2.47;;;0.35;;
72755;SDS011;60881;55.002;73.232;2022-08-19T00:34:16;2.58;;;0.30;;
72755;SDS011;60881;55.002;73.232;2022-08-19T00:36:42;1.40;;;0.38;;
72755;SDS011;60881;55.002;73.232;2022-08-19T00:39:10;2.15;;;0.35;;
72755;SDS011;60881;55.002;73.232;2022-08-19T00:41:40;1.38;;;0.30;;
72755;SDS011;60881;55.002;73.232;2022-08-19T00:46:37;0.85;;;0.28;;
72755;SDS011;60881;55.002;73.232;2022-08-19T00:49:06;3.47;;;0.38;;
72755;SDS011;60881;55.002;73.232;2022-08-19T00:51:41;0.90;;;0.30;;
72755;SDS011;60881;55.002;73.232;2022-08-19T00:54:10;1.85;;;0.50;;
72755;SDS011;60881;55.002;73.232;2022-08-19T00:56:37;1.33;;;0.30;;
72755;SDS011;60881;55.002;73.232;2022-08-19T00:59:05;2.47;;;0.45;;
72755;SDS011;60881;55.002;73.232;2022-08-19T01:01:44;3.22;;;0.40;;
72755;SDS011;60881;55.002;73.232;2022-08-19T01:04:12;1.30;;;0.30;;
72755;SDS011;60881;55.002;73.232;2022-08-19T01:06:43;2.08;;;0.30;;
72755;SDS011;60881;55.002;73.232;2022-08-19T01:09:09;0.20;;;0.20;;
72755;SDS011;60881;55.002;73.232;2022-08-19T01:11:38;0.82;;;0.40;;
72755;SDS011;60881;55.002;73.232;2022-08-19T01:14:06;8.85;;;0.47;;
72755;SDS011;60881;55.002;73.232;2022-08-19T01:16:34;1.05;;;0.40;;
72755;SDS011;60881;55.002;73.232;2022-08-19T01:19:08;1.88;;;0.43;;
72755;SDS011;60881;55.002;73.232;2022-08-19T01:21:47;0.60;;;0.47;;
72755;SDS011;60881;55.002;73.232;2022-08-19T01:24:43;1.40;;;0.50;;
72755;SDS011;60881;55.002;73.232;2022-08-19T01:27:11;2.83;;;0.60;;
72755;SDS011;60881;55.002;73.232;2022-08-19T01:29:39;3.40;;;0.80;;
72755;SDS011;60881;55.002;73.232;2022-08-19T01:32:12;1.08;;;0.50;;
72755;SDS011;60881;55.002;73.232;2022-08-19T01:34:41;5.82;;;0.50;;
72755;SDS011;60881;55.002;73.232;2022-08-19T01:37:13;1.15;;;0.47;;
72755;SDS011;60881;55.002;73.232;2022-08-19T01:39:42;1.23;;;0.32;;
72755;SDS011;60881;55.002;73.232;2022-08-19T01:42:09;3.83;;;0.60;;
72755;SDS011;60881;55.002;73.232;2022-08-19T01:44:40;0.65;;;0.32;;
72755;SDS011;60881;55.002;73.232;2022-08-19T01:47:07;2.22;;;0.50;;
72755;SDS011;60881;55.002;73.232;2022-08-19T01:49:35;3.80;;;0.40;;
72755;SDS011;60881;55.002;73.232;2022-08-19T01:52:03;1.95;;;0.50;;
72755;SDS011;60881;55.002;73.232;2022-08-19T01:54:31;3.05;;;0.70;;
72755;SDS011;60881;55.002;73.232;2022-08-19T01:57:07;4.13;;;0.70;;
72755;SDS011;60881;55.002;73.232;2022-08-19T01:59:35;3.70;;;0.50;;
72755;SDS011;60881;55.002;73.232;2022-08-19T02:02:05;6.32;;;0.70;;
72755;SDS011;60881;55.002;73.232;2022-08-19T02:04:36;1.30;;;0.35;;
72755;SDS011;60881;55.002;73.232;2022-08-19T02:07:06;6.22;;;0.63;;
72755;SDS011;60881;55.002;73.232;2022-08-19T02:09:34;9.02;;;0.80;;
72755;SDS011;60881;55.002;73.232;2022-08-19T02:12:00;3.25;;;0.40;;
72755;SDS011;60881;55.002;73.232;2022-08-19T02:14:29;4.28;;;0.80;;
72755;SDS011;60881;55.002;73.232;2022-08-19T02:16:55;6.80;;;0.50;;
72755;SDS011;60881;55.002;73.232;2022-08-19T02:19:25;4.07;;;0.52;;
72755;SDS011;60881;55.002;73.232;2022-08-19T02:21:52;5.00;;;0.55;;
72755;SDS011;60881;55.002;73.232;2022-08-19T02:24:18;2.42;;;0.75;;
72755;SDS011;60881;55.002;73.232;2022-08-19T02:26:45;2.08;;;0.73;;
72755;SDS011;60881;55.002;73.232;2022-08-19T02:29:11;4.68;;;0.50;;
72755;SDS011;60881;55.002;73.232;2022-08-19T02:31:38;3.83;;;0.50;;
72755;SDS011;60881;55.002;73.232;2022-08-19T02:34:04;6.93;;;0.50;;
72755;SDS011;60881;55.002;73.232;2022-08-19T02:36:31;2.05;;;0.40;;
72755;SDS011;60881;55.002;73.232;2022-08-19T02:38:58;1.92;;;0.50;;
72755;SDS011;60881;55.002;73.232;2022-08-19T02:41:26;5.88;;;0.60;;
72755;SDS011;60881;55.002;73.232;2022-08-19T02:43:55;7.72;;;0.60;;
72755;SDS011;60881;55.002;73.232;2022-08-19T02:46:25;1.92;;;0.50;;
72755;SDS011;60881;55.002;73.232;2022-08-19T02:48:57;4.60;;;0.70;;
72755;SDS011;60881;55.002;73.232;2022-08-19T02:51:29;5.13;;;0.50;;
72755;SDS011;60881;55.002;73.232;2022-08-19T02:53:59;8.30;;;0.60;;
72755;SDS011;60881;55.002;73.232;2022-08-19T02:56:26;7.18;;;0.60;;
72755;SDS011;60881;55.002;73.232;2022-08-19T02:58:54;9.95;;;2.65;;
72755;SDS011;60881;55.002;73.232;2022-08-19T03:01:25;8.23;;;0.60;;
72755;SDS011;60881;55.002;73.232;2022-08-19T03:03:58;3.05;;;0.60;;
72755;SDS011;60881;55.002;73.232;2022-08-19T03:06:27;2.80;;;0.52;;
72755;SDS011;60881;55.002;73.232;2022-08-19T03:08:54;3.15;;;0.40;;
72755;SDS011;60881;55.002;73.232;2022-08-19T03:11:22;4.13;;;0.65;;
72755;SDS011;60881;55.002;73.232;2022-08-19T03:13:52;9.38;;;0.65;;
72755;SDS011;60881;55.002;73.232;2022-08-19T03:16:19;6.97;;;0.70;;
72755;SDS011;60881;55.002;73.232;2022-08-19T03:18:48;5.25;;;1.65;;
72755;SDS011;60881;55.002;73.232;2022-08-19T03:21:16;2.85;;;1.50;;
72755;SDS011;60881;55.002;73.232;2022-08-19T03:23:49;4.20;;;1.75;;
72755;SDS011;60881;55.002;73.232;2022-08-19T03:26:16;7.82;;;2.13;;
72755;SDS011;60881;55.002;73.232;2022-08-19T03:28:44;4.00;;;2.15;;
72755;SDS011;60881;55.002;73.232;2022-08-19T03:31:25;3.03;;;1.20;;
72755;SDS011;60881;55.002;73.232;2022-08-19T03:33:53;4.35;;;1.30;;
72755;SDS011;60881;55.002;73.232;2022-08-19T03:36:22;3.67;;;0.90;;
72755;SDS011;60881;55.002;73.232;2022-08-19T03:38:53;2.13;;;0.60;;
72755;SDS011;60881;55.002;73.232;2022-08-19T03:41:27;2.85;;;0.57;;
72755;SDS011;60881;55.002;73.232;2022-08-19T03:43:56;6.53;;;0.80;;
72755;SDS011;60881;55.002;73.232;2022-08-19T03:46:26;5.90;;;0.80;;
72755;SDS011;60881;55.002;73.232;2022-08-19T03:48:59;4.70;;;0.90;;
72755;SDS011;60881;55.002;73.232;2022-08-19T03:51:30;4.10;;;1.00;;
72755;SDS011;60881;55.002;73.232;2022-08-19T03:53:59;5.97;;;0.60;;
72755;SDS011;60881;55.002;73.232;2022-08-19T03:56:28;6.53;;;0.80;;
72755;SDS011;60881;55.002;73.232;2022-08-19T03:58:56;3.25;;;1.42;;
72755;SDS011;60881;55.002;73.232;2022-08-19T04:01:25;6.82;;;2.40;;
72755;SDS011;60881;55.002;73.232;2022-08-19T04:03:58;6.63;;;2.80;;
72755;SDS011;60881;55.002;73.232;2022-08-19T04:06:26;7.40;;;1.50;;
72755;SDS011;60881;55.002;73.232;2022-08-19T04:08:56;4.88;;;1.30;;
72755;SDS011;60881;55.002;73.232;2022-08-19T04:11:26;5.55;;;1.38;;
72755;SDS011;60881;55.002;73.232;2022-08-19T04:13:57;8.07;;;1.10;;
72755;SDS011;60881;55.002;73.232;2022-08-19T04:16:25;5.93;;;1.25;;
72755;SDS011;60881;55.002;73.232;2022-08-19T04:18:55;4.32;;;0.80;;
72755;SDS011;60881;55.002;73.232;2022-08-19T04:21:23;4.63;;;0.70;;
72755;SDS011;60881;55.002;73.232;2022-08-19T04:23:52;4.22;;;0.77;;
72755;SDS011;60881;55.002;73.232;2022-08-19T04:26:21;9.10;;;0.73;;
72755;SDS011;60881;55.002;73.232;2022-08-19T04:28:59;9.30;;;0.98;;
72755;SDS011;60881;55.002;73.232;2022-08-19T04:31:28;8.18;;;1.20;;
72755;SDS011;60881;55.002;73.232;2022-08-19T04:34:06;5.38;;;1.30;;
72755;SDS011;60881;55.002;73.232;2022-08-19T04:36:40;13.07;;;1.23;;
72755;SDS011;60881;55.002;73.232;2022-08-19T04:39:12;3.90;;;0.47;;
72755;SDS011;60881;55.002;73.232;2022-08-19T04:41:41;6.20;;;0.77;;
72755;SDS011;60881;55.002;73.232;2022-08-19T04:44:27;14.27;;;1.92;;
72755;SDS011;60881;55.002;73.232;2022-08-19T04:46:56;5.82;;;0.80;;
72755;SDS011;60881;55.002;73.232;2022-08-19T04:49:23;1.52;;;0.40;;
72755;SDS011;60881;55.002;73.232;2022-08-19T04:51:51;2.83;;;0.50;;
72755;SDS011;60881;55.002;73.232;2022-08-19T04:54:20;3.63;;;0.70;;
72755;SDS011;60881;55.002;73.232;2022-08-19T04:56:49;5.50;;;0.88;;
72755;SDS011;60881;55.002;73.232;2022-08-19T04:59:16;6.13;;;0.73;;
72755;SDS011;60881;55.002;73.232;2022-08-19T05:01:45;5.03;;;0.90;;
72755;SDS011;60881;55.002;73.232;2022-08-19T05:04:17;4.32;;;0.80;;
72755;SDS011;60881;55.002;73.232;2022-08-19T05:06:52;13.38;;;1.40;;
72755;SDS011;60881;55.002;73.232;2022-08-19T05:09:19;1.45;;;0.85;;
72755;SDS011;60881;55.002;73.232;2022-08-19T05:11:52;3.38;;;1.52;;
72755;SDS011;60881;55.002;73.232;2022-08-19T05:14:29;7.53;;;1.52;;
72755;SDS011;60881;55.002;73.232;2022-08-19T05:16:56;9.57;;;1.00;;
72755;SDS011;60881;55.002;73.232;2022-08-19T05:19:24;5.60;;;0.93;;
72755;SDS011;60881;55.002;73.232;2022-08-19T05:22:08;12.77;;;0.70;;
72755;SDS011;60881;55.002;73.232;2022-08-19T05:25:01;11.20;;;1.10;;
72755;SDS011;60881;55.002;73.232;2022-08-19T05:27:32;1.60;;;0.60;;
72755;SDS011;60881;55.002;73.232;2022-08-19T05:29:59;6.68;;;0.82;;
72755;SDS011;60881;55.002;73.232;2022-08-19T05:32:27;2.15;;;0.60;;
72755;SDS011;60881;55.002;73.232;2022-08-19T05:34:53;2.75;;;0.80;;
72755;SDS011;60881;55.002;73.232;2022-08-19T05:37:20;8.50;;;0.50;;
72755;SDS011;60881;55.002;73.232;2022-08-19T05:39:47;0.70;;;0.40;;
72755;SDS011;60881;55.002;73.232;2022-08-19T05:42:14;7.55;;;0.63;;
72755;SDS011;60881;55.002;73.232;2022-08-19T05:44:43;5.65;;;0.60;;
72755;SDS011;60881;55.002;73.232;2022-08-19T05:47:12;2.95;;;0.50;;
72755;SDS011;60881;55.002;73.232;2022-08-19T05:49:41;7.32;;;0.60;;
72755;SDS011;60881;55.002;73.232;2022-08-19T05:52:10;4.15;;;0.50;;
72755;SDS011;60881;55.002;73.232;2022-08-19T05:54:48;3.33;;;0.60;;
72755;SDS011;60881;55.002;73.232;2022-08-19T05:57:16;7.90;;;0.70;;
72755;SDS011;60881;55.002;73.232;2022-08-19T05:59:45;4.78;;;0.63;;
72755;SDS011;60881;55.002;73.232;2022-08-19T06:02:13;3.80;;;0.60;;
72755;SDS011;60881;55.002;73.232;2022-08-19T06:04:40;3.63;;;0.50;;
72755;SDS011;60881;55.002;73.232;2022-08-19T06:07:08;0.98;;;0.60;;
72755;SDS011;60881;55.002;73.232;2022-08-19T06:09:35;2.50;;;0.65;;
72755;SDS011;60881;55.002;73.232;2022-08-19T06:12:03;3.63;;;0.80;;
72755;SDS011;60881;55.002;73.232;2022-08-19T06:14:30;4.38;;;0.98;;
72755;SDS011;60881;55.002;73.232;2022-08-19T06:17:01;2.65;;;1.10;;
72755;SDS011;60881;55.002;73.232;2022-08-19T06:19:29;6.50;;;0.90;;
72755;SDS011;60881;55.002;73.232;2022-08-19T06:21:56;7.82;;;0.90;;
72755;SDS011;60881;55.002;73.232;2022-08-19T06:24:25;3.67;;;0.50;;
72755;SDS011;60881;55.002;73.232;2022-08-19T06:27:00;2.83;;;0.88;;
72755;SDS011;60881;55.002;73.232;2022-08-19T06:29:28;11.23;;;1.85;;
72755;SDS011;60881;55.002;73.232;2022-08-19T06:31:56;10.40;;;1.77;;
72755;SDS011;60881;55.002;73.232;2022-08-19T06:34:26;3.10;;;0.80;;
72755;SDS011;60881;55.002;73.232;2022-08-19T06:36:56;2.50;;;0.80;;
72755;SDS011;60881;55.002;73.232;2022-08-19T06:39:33;12.77;;;0.88;;
72755;SDS011;60881;55.002;73.232;2022-08-19T06:42:02;5.57;;;0.70;;
72755;SDS011;60881;55.002;73.232;2022-08-19T06:44:33;5.13;;;1.20;;
72755;SDS011;60881;55.002;73.232;2022-08-19T06:47:02;10.30;;;1.38;;
72755;SDS011;60881;55.002;73.232;2022-08-19T06:49:30;8.10;;;1.63;;
72755;SDS011;60881;55.002;73.232;2022-08-19T06:51:57;7.15;;;2.22;;
72755;SDS011;60881;55.002;73.232;2022-08-19T06:54:24;2.30;;;0.80;;
72755;SDS011;60881;55.002;73.232;2022-08-19T06:57:01;6.88;;;1.20;;
72755;SDS011;60881;55.002;73.232;2022-08-19T06:59:28;3.38;;;0.95;;
72755;SDS011;60881;55.002;73.232;2022-08-19T07:01:59;14.18;;;1.25;;
72755;SDS011;60881;55.002;73.232;2022-08-19T07:04:30;6.35;;;1.40;;
72755;SDS011;60881;55.002;73.232;2022-08-19T07:06:59;5.55;;;1.13;;
72755;SDS011;60881;55.002;73.232;2022-08-19T07:09:28;3.60;;;1.00;;
72755;SDS011;60881;55.002;73.232;2022-08-19T07:11:58;9.48;;;1.10;;
72755;SDS011;60881;55.002;73.232;2022-08-19T07:14:25;8.00;;;1.10;;
72755;SDS011;60881;55.002;73.232;2022-08-19T07:16:54;6.97;;;1.10;;
72755;SDS011;60881;55.002;73.232;2022-08-19T07:19:24;7.68;;;0.80;;
72755;SDS011;60881;55.002;73.232;2022-08-19T07:21:55;8.50;;;1.10;;
72755;SDS011;60881;55.002;73.232;2022-08-19T07:24:24;4.70;;;0.90;;
72755;SDS011;60881;55.002;73.232;2022-08-19T07:26:52;5.97;;;1.02;;
72755;SDS011;60881;55.002;73.232;2022-08-19T07:29:20;8.40;;;1.10;;
72755;SDS011;60881;55.002;73.232;2022-08-19T07:31:50;9.55;;;1.30;;
72755;SDS011;60881;55.002;73.232;2022-08-19T07:34:17;5.80;;;1.50;;
72755;SDS011;60881;55.002;73.232;2022-08-19T07:36:44;5.30;;;1.40;;
72755;SDS011;60881;55.002;73.232;2022-08-19T07:39:15;9.50;;;1.52;;
72755;SDS011;60881;55.002;73.232;2022-08-19T07:41:48;6.88;;;1.20;;
72755;SDS011;60881;55.002;73.232;2022-08-19T07:44:16;4.75;;;1.10;;
72755;SDS011;60881;55.002;73.232;2022-08-19T07:46:54;7.53;;;1.20;;
72755;SDS011;60881;55.002;73.232;2022-08-19T07:49:23;2.92;;;1.10;;
72755;SDS011;60881;55.002;73.232;2022-08-19T07:51:52;4.30;;;1.13;;
72755;SDS011;60881;55.002;73.232;2022-08-19T07:54:22;7.43;;;1.25;;
72755;SDS011;60881;55.002;73.232;2022-08-19T07:56:50;5.05;;;1.17;;
72755;SDS011;60881;55.002;73.232;2022-08-19T07:59:20;4.50;;;1.20;;
72755;SDS011;60881;55.002;73.232;2022-08-19T08:01:47;4.45;;;1.10;;
72755;SDS011;60881;55.002;73.232;2022-08-19T08:04:15;3.67;;;1.25;;
72755;SDS011;60881;55.002;73.232;2022-08-19T08:07:03;5.18;;;1.50;;
72755;SDS011;60881;55.002;73.232;2022-08-19T08:09:50;6.80;;;1.33;;
72755;SDS011;60881;55.002;73.232;2022-08-19T08:12:20;4.47;;;1.40;;
72755;SDS011;60881;55.002;73.232;2022-08-19T08:14:53;2.92;;;1.33;;
72755;SDS011;60881;55.002;73.232;2022-08-19T08:17:24;6.32;;;1.42;;
72755;SDS011;60881;55.002;73.232;2022-08-19T08:19:53;4.72;;;1.30;;
72755;SDS011;60881;55.002;73.232;2022-08-19T08:22:21;5.05;;;1.50;;
72755;SDS011;60881;55.002;73.232;2022-08-19T08:25:09;5.63;;;1.70;;
72755;SDS011;60881;55.002;73.232;2022-08-19T08:27:39;5.55;;;1.50;;
72755;SDS011;60881;55.002;73.232;2022-08-19T08:30:08;6.55;;;1.75;;
72755;SDS011;60881;55.002;73.232;2022-08-19T08:32:37;11.52;;;2.00;;
72755;SDS011;60881;55.002;73.232;2022-08-19T08:35:16;5.80;;;2.03;;
72755;SDS011;60881;55.002;73.232;2022-08-19T08:37:45;5.50;;;2.33;;
72755;SDS011;60881;55.002;73.232;2022-08-19T08:40:28;12.20;;;2.35;;
72755;SDS011;60881;55.002;73.232;2022-08-19T08:45:47;7.93;;;1.80;;
72755;SDS011;60881;55.002;73.232;2022-08-19T08:48:24;3.63;;;1.55;;
72755;SDS011;60881;55.002;73.232;2022-08-19T08:51:02;11.43;;;2.05;;
72755;SDS011;60881;55.002;73.232;2022-08-19T08:53:32;8.50;;;2.20;;
72755;SDS011;60881;55.002;73.232;2022-08-19T08:56:02;6.28;;;1.92;;
72755;SDS011;60881;55.002;73.232;2022-08-19T08:58:36;5.28;;;1.80;;
72755;SDS011;60881;55.002;73.232;2022-08-19T09:01:11;17.98;;;1.98;;
72755;SDS011;60881;55.002;73.232;2022-08-19T09:03:40;3.78;;;1.73;;
72755;SDS011;60881;55.002;73.232;2022-08-19T09:09:32;5.15;;;1.40;;
72755;SDS011;60881;55.002;73.232;2022-08-19T09:17:29;5.53;;;1.85;;
72755;SDS011;60881;55.002;73.232;2022-08-19T09:19:58;14.98;;;2.72;;
72755;SDS011;60881;55.002;73.232;2022-08-19T09:22:31;7.72;;;2.15;;
72755;SDS011;60881;55.002;73.232;2022-08-19T09:24:59;6.07;;;2.20;;
72755;SDS011;60881;55.002;73.232;2022-08-19T09:27:26;8.05;;;3.25;;
72755;SDS011;60881;55.002;73.232;2022-08-19T09:29:53;7.20;;;2.00;;
72755;SDS011;60881;55.002;73.232;2022-08-19T09:32:21;5.97;;;1.90;;
72755;SDS011;60881;55.002;73.232;2022-08-19T09:34:48;8.63;;;2.58;;
72755;SDS011;60881;55.002;73.232;2022-08-19T09:37:14;8.23;;;2.40;;
72755;SDS011;60881;55.002;73.232;2022-08-19T09:39:42;9.90;;;2.47;;
72755;SDS011;60881;55.002;73.232;2022-08-19T09:42:10;6.80;;;2.60;;
72755;SDS011;60881;55.002;73.232;2022-08-19T09:44:39;3.72;;;2.50;;
72755;SDS011;60881;55.002;73.232;2022-08-19T09:47:07;5.82;;;2.40;;
72755;SDS011;60881;55.002;73.232;2022-08-19T09:49:34;7.65;;;2.88;;
72755;SDS011;60881;55.002;73.232;2022-08-19T09:52:02;5.05;;;2.90;;
72755;SDS011;60881;55.002;73.232;2022-08-19T09:54:29;6.50;;;3.40;;
72755;SDS011;60881;55.002;73.232;2022-08-19T09:56:57;9.80;;;3.00;;
72755;SDS011;60881;55.002;73.232;2022-08-19T09:59:28;4.88;;;3.03;;
72755;SDS011;60881;55.002;73.232;2022-08-19T10:01:56;10.25;;;3.33;;
72755;SDS011;60881;55.002;73.232;2022-08-19T10:04:33;19.25;;;4.18;;
72755;SDS011;60881;55.002;73.232;2022-08-19T10:07:19;13.82;;;3.45;;
72755;SDS011;60881;55.002;73.232;2022-08-19T10:09:48;10.38;;;3.80;;
72755;SDS011;60881;55.002;73.232;2022-08-19T10:12:19;6.40;;;3.17;;
72755;SDS011;60881;55.002;73.232;2022-08-19T10:14:50;9.35;;;2.90;;
72755;SDS011;60881;55.002;73.232;2022-08-19T10:17:23;6.47;;;2.55;;
72755;SDS011;60881;55.002;73.232;2022-08-19T10:19:52;4.35;;;2.30;;
72755;SDS011;60881;55.002;73.232;2022-08-19T10:22:24;4.80;;;2.30;;
72755;SDS011;60881;55.002;73.232;2022-08-19T10:24:51;8.48;;;2.70;;
72755;SDS011;60881;55.002;73.232;2022-08-19T10:27:19;9.45;;;2.45;;
72755;SDS011;60881;55.002;73.232;2022-08-19T10:29:55;17.05;;;3.35;;
72755;SDS011;60881;55.002;73.232;2022-08-19T10:32:32;9.73;;;3.65;;
72755;SDS011;60881;55.002;73.232;2022-08-19T10:35:01;10.98;;;4.10;;
72755;SDS011;60881;55.002;73.232;2022-08-19T10:37:31;4.88;;;2.95;;
72755;SDS011;60881;55.002;73.232;2022-08-19T10:39:59;9.73;;;3.40;;
72755;SDS011;60881;55.002;73.232;2022-08-19T10:42:26;9.32;;;3.17;;
72755;SDS011;60881;55.002;73.232;2022-08-19T10:44:53;11.30;;;3.88;;
72755;SDS011;60881;55.002;73.232;2022-08-19T10:47:20;5.85;;;3.30;;
72755;SDS011;60881;55.002;73.232;2022-08-19T10:49:50;6.03;;;3.58;;
72755;SDS011;60881;55.002;73.232;2022-08-19T10:52:35;5.90;;;4.00;;
72755;SDS011;60881;55.002;73.232;2022-08-19T10:55:05;5.10;;;3.20;;
72755;SDS011;60881;55.002;73.232;2022-08-19T10:57:50;8.18;;;3.20;;
72755;SDS011;60881;55.002;73.232;2022-08-19T11:00:19;5.57;;;3.20;;
72755;SDS011;60881;55.002;73.232;2022-08-19T11:02:49;5.55;;;3.08;;
72755;SDS011;60881;55.002;73.232;2022-08-19T11:05:16;4.93;;;3.08;;
72755;SDS011;60881;55.002;73.232;2022-08-19T11:07:43;4.10;;;2.65;;
72755;SDS011;60881;55.002;73.232;2022-08-19T11:10:15;5.30;;;2.80;;
72755;SDS011;60881;55.002;73.232;2022-08-19T11:12:45;5.85;;;3.20;;
72755;SDS011;60881;55.002;73.232;2022-08-19T11:15:12;4.55;;;3.00;;
72755;SDS011;60881;55.002;73.232;2022-08-19T11:17:40;3.90;;;2.50;;
72755;SDS011;60881;55.002;73.232;2022-08-19T11:20:09;5.40;;;2.65;;
72755;SDS011;60881;55.002;73.232;2022-08-19T11:22:38;6.70;;;2.65;;
72755;SDS011;60881;55.002;73.232;2022-08-19T11:25:06;3.95;;;2.38;;
72755;SDS011;60881;55.002;73.232;2022-08-19T11:27:33;6.22;;;2.20;;
72755;SDS011;60881;55.002;73.232;2022-08-19T11:29:59;4.68;;;1.90;;
72755;SDS011;60881;55.002;73.232;2022-08-19T11:32:37;15.80;;;10.60;;
72755;SDS011;60881;55.002;73.232;2022-08-19T11:35:03;7.47;;;5.00;;
72755;SDS011;60881;55.002;73.232;2022-08-19T11:37:30;7.47;;;3.95;;
72755;SDS011;60881;55.002;73.232;2022-08-19T11:40:01;6.57;;;3.85;;
72755;SDS011;60881;55.002;73.232;2022-08-19T11:42:27;5.00;;;2.80;;
72755;SDS011;60881;55.002;73.232;2022-08-19T11:45:12;4.00;;;1.90;;
72755;SDS011;60881;55.002;73.232;2022-08-19T11:47:40;3.55;;;1.65;;
72755;SDS011;60881;55.002;73.232;2022-08-19T11:50:07;3.55;;;1.70;;
72755;SDS011;60881;55.002;73.232;2022-08-19T11:52:33;7.38;;;1.95;;
72755;SDS011;60881;55.002;73.232;2022-08-19T11:55:01;3.40;;;2.30;;
72755;SDS011;60881;55.002;73.232;2022-08-19T11:57:28;6.20;;;2.80;;
72755;SDS011;60881;55.002;73.232;2022-08-19T12:00:00;5.53;;;2.60;;
72755;SDS011;60881;55.002;73.232;2022-08-19T12:02:27;3.97;;;2.35;;
72755;SDS011;60881;55.002;73.232;2022-08-19T12:04:58;8.70;;;2.20;;
72755;SDS011;60881;55.002;73.232;2022-08-19T12:07:34;4.40;;;2.40;;
72755;SDS011;60881;55.002;73.232;2022-08-19T12:10:01;5.82;;;2.17;;
72755;SDS011;60881;55.002;73.232;2022-08-19T12:12:29;3.40;;;1.70;;
72755;SDS011;60881;55.002;73.232;2022-08-19T12:14:55;23.67;;;2.20;;
72755;SDS011;60881;55.002;73.232;2022-08-19T12:17:24;4.55;;;1.70;;
72755;SDS011;60881;55.002;73.232;2022-08-19T12:19:53;3.80;;;1.92;;
72755;SDS011;60881;55.002;73.232;2022-08-19T12:22:20;4.88;;;2.50;;
72755;SDS011;60881;55.002;73.232;2022-08-19T12:24:48;4.88;;;2.42;;
72755;SDS011;60881;55.002;73.232;2022-08-19T12:27:16;6.57;;;2.50;;
72755;SDS011;60881;55.002;73.232;2022-08-19T12:29:44;4.32;;;2.13;;
72755;SDS011;60881;55.002;73.232;2022-08-19T12:32:10;10.60;;;2.50;;
72755;SDS011;60881;55.002;73.232;2022-08-19T12:34:37;2.75;;;1.88;;
72755;SDS011;60881;55.002;73.232;2022-08-19T12:37:04;6.95;;;2.03;;
72755;SDS011;60881;55.002;73.232;2022-08-19T12:39:35;2.65;;;1.58;;
72755;SDS011;60881;55.002;73.232;2022-08-19T12:42:08;2.70;;;1.58;;
72755;SDS011;60881;55.002;73.232;2022-08-19T12:44:41;3.67;;;1.50;;
72755;SDS011;60881;55.002;73.232;2022-08-19T12:47:10;3.95;;;2.05;;
72755;SDS011;60881;55.002;73.232;2022-08-19T12:49:39;4.68;;;2.65;;
72755;SDS011;60881;55.002;73.232;2022-08-19T12:52:07;7.57;;;2.40;;
72755;SDS011;60881;55.002;73.232;2022-08-19T12:54:34;7.70;;;2.20;;
72755;SDS011;60881;55.002;73.232;2022-08-19T12:57:05;4.55;;;2.00;;
72755;SDS011;60881;55.002;73.232;2022-08-19T12:59:34;6.80;;;2.80;;
72755;SDS011;60881;55.002;73.232;2022-08-19T13:02:04;4.05;;;2.10;;
72755;SDS011;60881;55.002;73.232;2022-08-19T13:04:43;6.13;;;2.45;;
72755;SDS011;60881;55.002;73.232;2022-08-19T13:07:09;7.07;;;3.28;;
72755;SDS011;60881;55.002;73.232;2022-08-19T13:09:36;8.38;;;3.03;;
72755;SDS011;60881;55.002;73.232;2022-08-19T13:12:03;3.70;;;2.30;;
72755;SDS011;60881;55.002;73.232;2022-08-19T13:14:37;6.38;;;3.13;;
72755;SDS011;60881;55.002;73.232;2022-08-19T13:17:03;15.05;;;6.82;;
72755;SDS011;60881;55.002;73.232;2022-08-19T13:19:30;9.73;;;5.80;;
72755;SDS011;60881;55.002;73.232;2022-08-19T13:21:57;7.57;;;4.25;;
72755;SDS011;60881;55.002;73.232;2022-08-19T13:24:24;4.43;;;2.90;;
72755;SDS011;60881;55.002;73.232;2022-08-19T13:26:51;7.05;;;2.50;;
72755;SDS011;60881;55.002;73.232;2022-08-19T13:29:19;5.05;;;2.45;;
72755;SDS011;60881;55.002;73.232;2022-08-19T13:32:06;7.13;;;1.90;;
72755;SDS011;60881;55.002;73.232;2022-08-19T13:37:17;5.40;;;2.30;;
72755;SDS011;60881;55.002;73.232;2022-08-19T13:40:18;3.75;;;2.30;;
72755;SDS011;60881;55.002;73.232;2022-08-19T13:42:50;4.00;;;2.03;;
72755;SDS011;60881;55.002;73.232;2022-08-19T13:45:21;5.85;;;2.13;;
72755;SDS011;60881;55.002;73.232;2022-08-19T13:47:59;15.43;;;2.20;;
72755;SDS011;60881;55.002;73.232;2022-08-19T13:50:29;6.20;;;2.05;;
72755;SDS011;60881;55.002;73.232;2022-08-19T13:52:59;11.55;;;2.47;;
72755;SDS011;60881;55.002;73.232;2022-08-19T13:55:32;13.23;;;2.55;;
72755;SDS011;60881;55.002;73.232;2022-08-19T13:57:59;10.13;;;2.10;;
72755;SDS011;60881;55.002;73.232;2022-08-19T14:00:29;14.98;;;2.80;;
72755;SDS011;60881;55.002;73.232;2022-08-19T14:03:08;9.68;;;2.15;;
72755;SDS011;60881;55.002;73.232;2022-08-19T14:05:35;6.43;;;2.40;;
72755;SDS011;60881;55.002;73.232;2022-08-19T14:08:02;7.30;;;2.60;;
72755;SDS011;60881;55.002;73.232;2022-08-19T14:10:29;3.67;;;2.35;;
72755;SDS011;60881;55.002;73.232;2022-08-19T14:13:01;3.83;;;2.47;;
72755;SDS011;60881;55.002;73.232;2022-08-19T14:15:28;7.05;;;3.22;;
72755;SDS011;60881;55.002;73.232;2022-08-19T14:17:55;7.35;;;3.30;;
72755;SDS011;60881;55.002;73.232;2022-08-19T14:20:22;6.25;;;3.33;;
72755;SDS011;60881;55.002;73.232;2022-08-19T14:23:00;4.07;;;2.45;;
72755;SDS011;60881;55.002;73.232;2022-08-19T14:25:32;3.85;;;2.70;;
72755;SDS011;60881;55.002;73.232;2022-08-19T14:27:59;4.38;;;2.60;;
72755;SDS011;60881;55.002;73.232;2022-08-19T14:30:31;5.50;;;2.95;;
72755;SDS011;60881;55.002;73.232;2022-08-19T14:33:03;4.18;;;2.70;;
72755;SDS011;60881;55.002;73.232;2022-08-19T14:35:40;7.30;;;2.80;;
72755;SDS011;60881;55.002;73.232;2022-08-19T14:38:14;6.43;;;4.03;;
72755;SDS011;60881;55.002;73.232;2022-08-19T14:40:44;5.35;;;3.40;;
72755;SDS011;60881;55.002;73.232;2022-08-19T14:43:17;5.28;;;3.53;;
72755;SDS011;60881;55.002;73.232;2022-08-19T14:45:48;8.32;;;3.50;;
72755;SDS011;60881;55.002;73.232;2022-08-19T14:48:21;9.20;;;4.80;;
72755;SDS011;60881;55.002;73.232;2022-08-19T14:50:48;9.63;;;6.00;;
72755;SDS011;60881;55.002;73.232;2022-08-19T14:53:15;7.78;;;4.57;;
72755;SDS011;60881;55.002;73.232;2022-08-19T14:55:48;10.25;;;6.47;;
72755;SDS011;60881;55.002;73.232;2022-08-19T14:58:14;6.97;;;4.85;;
72755;SDS011;60881;55.002;73.232;2022-08-19T15:00:42;8.68;;;5.20;;
72755;SDS011;60881;55.002;73.232;2022-08-19T15:03:14;9.05;;;4.82;;
72755;SDS011;60881;55.002;73.232;2022-08-19T15:05:45;8.88;;;5.43;;
72755;SDS011;60881;55.002;73.232;2022-08-19T15:08:12;9.57;;;5.50;;